sensor_id;sensor_type;location;lat;lon;timestamp;temperature;humidity
26537;DHT22;14204;51.262;5.488;2022-07-23T00:00:50;20.50;99.90
26537;DHT22;14204;51.262;5.488;2022-07-23T00:03:16;20.50;99.90
26537;DHT22;14204;51.262;5.488;2022-07-23T00:05:41;20.40;99.90
26537;DHT22;14204;51.262;5.488;2022-07-23T00:08:07;20.40;99.90
26537;DHT22;14204;51.262;5.488;2022-07-23T00:10:34;20.50;99.90
26537;DHT22;14204;51.262;5.488;2022-07-23T00:12:59;20.40;99.90
26537;DHT22;14204;51.262;5.488;2022-07-23T00:15:25;20.40;99.90
26537;DHT22;14204;51.262;5.488;2022-07-23T00:17:51;20.30;99.90
26537;DHT22;14204;51.262;5.488;2022-07-23T00:20:17;20.30;99.90
26537;DHT22;14204;51.262;5.488;2022-07-23T00:22:50;20.20;99.90
26537;DHT22;14204;51.262;5.488;2022-07-23T00:25:16;20.10;99.90
26537;DHT22;14204;51.262;5.488;2022-07-23T00:27:42;20.10;99.90
26537;DHT22;14204;51.262;5.488;2022-07-23T00:30:09;20.10;99.90
26537;DHT22;14204;51.262;5.488;2022-07-23T00:32:54;20.10;99.90
26537;DHT22;14204;51.262;5.488;2022-07-23T00:35:22;20.10;99.90
26537;DHT22;14204;51.262;5.488;2022-07-23T00:37:48;20.10;99.90
26537;DHT22;14204;51.262;5.488;2022-07-23T00:40:14;20.10;99.90
26537;DHT22;14204;51.262;5.488;2022-07-23T00:42:40;20.10;99.90
26537;DHT22;14204;51.262;5.488;2022-07-23T00:45:07;20.10;99.90
26537;DHT22;14204;51.262;5.488;2022-07-23T00:47:33;20.10;99.90
26537;DHT22;14204;51.262;5.488;2022-07-23T00:49:59;20.00;99.90
26537;DHT22;14204;51.262;5.488;2022-07-23T00:52:25;20.00;99.90
26537;DHT22;14204;51.262;5.488;2022-07-23T00:54:51;20.00;99.90
26537;DHT22;14204;51.262;5.488;2022-07-23T00:57:17;19.90;99.90
26537;DHT22;14204;51.262;5.488;2022-07-23T00:59:43;19.90;99.90
26537;DHT22;14204;51.262;5.488;2022-07-23T01:02:10;19.80;99.90
26537;DHT22;14204;51.262;5.488;2022-07-23T01:04:36;19.80;99.90
26537;DHT22;14204;51.262;5.488;2022-07-23T01:07:01;19.80;99.90
26537;DHT22;14204;51.262;5.488;2022-07-23T01:09:27;19.80;99.90
26537;DHT22;14204;51.262;5.488;2022-07-23T01:11:54;19.80;99.90
26537;DHT22;14204;51.262;5.488;2022-07-23T01:14:21;19.70;99.90
26537;DHT22;14204;51.262;5.488;2022-07-23T01:16:48;19.70;99.90
26537;DHT22;14204;51.262;5.488;2022-07-23T01:19:15;19.70;99.90
26537;DHT22;14204;51.262;5.488;2022-07-23T01:21:47;19.70;99.90
26537;DHT22;14204;51.262;5.488;2022-07-23T01:24:13;19.60;99.90
26537;DHT22;14204;51.262;5.488;2022-07-23T01:26:45;19.50;99.90
26537;DHT22;14204;51.262;5.488;2022-07-23T01:29:11;19.50;99.90
26537;DHT22;14204;51.262;5.488;2022-07-23T01:31:37;19.40;99.90
26537;DHT22;14204;51.262;5.488;2022-07-23T01:34:03;19.30;99.90
26537;DHT22;14204;51.262;5.488;2022-07-23T01:36:30;19.40;99.90
26537;DHT22;14204;51.262;5.488;2022-07-23T01:38:55;19.40;99.90
26537;DHT22;14204;51.262;5.488;2022-07-23T01:41:21;19.40;99.90
26537;DHT22;14204;51.262;5.488;2022-07-23T01:43:47;19.30;99.90
26537;DHT22;14204;51.262;5.488;2022-07-23T01:46:13;19.30;99.90
26537;DHT22;14204;51.262;5.488;2022-07-23T01:48:39;19.20;99.90
26537;DHT22;14204;51.262;5.488;2022-07-23T01:51:05;19.10;99.90
26537;DHT22;14204;51.262;5.488;2022-07-23T01:53:31;19.10;99.90
26537;DHT22;14204;51.262;5.488;2022-07-23T01:55:59;19.00;99.90
26537;DHT22;14204;51.262;5.488;2022-07-23T01:58:26;19.00;99.90
26537;DHT22;14204;51.262;5.488;2022-07-23T02:00:53;19.00;99.90
26537;DHT22;14204;51.262;5.488;2022-07-23T02:03:19;19.10;99.90
26537;DHT22;14204;51.262;5.488;2022-07-23T02:05:44;19.10;99.90
26537;DHT22;14204;51.262;5.488;2022-07-23T02:08:10;19.10;99.90
26537;DHT22;14204;51.262;5.488;2022-07-23T02:10:36;19.00;99.90
26537;DHT22;14204;51.262;5.488;2022-07-23T02:13:01;19.00;99.90
26537;DHT22;14204;51.262;5.488;2022-07-23T02:15:27;19.00;99.90
26537;DHT22;14204;51.262;5.488;2022-07-23T02:17:54;18.90;99.90
26537;DHT22;14204;51.262;5.488;2022-07-23T02:20:20;18.90;99.90
26537;DHT22;14204;51.262;5.488;2022-07-23T02:22:46;18.80;99.90
26537;DHT22;14204;51.262;5.488;2022-07-23T02:25:11;18.80;99.90
26537;DHT22;14204;51.262;5.488;2022-07-23T02:27:37;18.80;99.90
26537;DHT22;14204;51.262;5.488;2022-07-23T02:30:04;18.80;99.90
26537;DHT22;14204;51.262;5.488;2022-07-23T02:32:30;18.80;99.90
26537;DHT22;14204;51.262;5.488;2022-07-23T02:34:55;18.80;99.90
26537;DHT22;14204;51.262;5.488;2022-07-23T02:37:21;18.80;99.90
26537;DHT22;14204;51.262;5.488;2022-07-23T02:39:47;18.70;99.90
26537;DHT22;14204;51.262;5.488;2022-07-23T02:42:14;18.60;99.90
26537;DHT22;14204;51.262;5.488;2022-07-23T02:44:40;18.70;99.90
26537;DHT22;14204;51.262;5.488;2022-07-23T02:47:06;18.70;99.90
26537;DHT22;14204;51.262;5.488;2022-07-23T02:49:32;18.70;99.90
26537;DHT22;14204;51.262;5.488;2022-07-23T02:51:58;18.60;99.90
26537;DHT22;14204;51.262;5.488;2022-07-23T02:54:23;18.60;99.90
26537;DHT22;14204;51.262;5.488;2022-07-23T02:56:49;18.50;99.90
26537;DHT22;14204;51.262;5.488;2022-07-23T02:59:17;18.50;99.90
26537;DHT22;14204;51.262;5.488;2022-07-23T03:01:43;18.50;99.90
26537;DHT22;14204;51.262;5.488;2022-07-23T03:04:09;18.50;99.90
26537;DHT22;14204;51.262;5.488;2022-07-23T03:06:34;18.50;99.90
26537;DHT22;14204;51.262;5.488;2022-07-23T03:09:00;18.50;99.90
26537;DHT22;14204;51.262;5.488;2022-07-23T03:11:26;18.50;99.90
26537;DHT22;14204;51.262;5.488;2022-07-23T03:13:51;18.40;99.90
26537;DHT22;14204;51.262;5.488;2022-07-23T03:16:17;18.30;99.90
26537;DHT22;14204;51.262;5.488;2022-07-23T03:18:43;18.40;99.90
26537;DHT22;14204;51.262;5.488;2022-07-23T03:21:09;18.40;99.90
26537;DHT22;14204;51.262;5.488;2022-07-23T03:23:34;18.40;99.90
26537;DHT22;14204;51.262;5.488;2022-07-23T03:26:00;18.30;99.90
26537;DHT22;14204;51.262;5.488;2022-07-23T03:28:26;18.30;99.90
26537;DHT22;14204;51.262;5.488;2022-07-23T03:30:51;18.30;99.90
26537;DHT22;14204;51.262;5.488;2022-07-23T03:33:18;18.30;99.90
26537;DHT22;14204;51.262;5.488;2022-07-23T03:35:45;18.30;99.90
26537;DHT22;14204;51.262;5.488;2022-07-23T03:38:11;18.20;99.90
26537;DHT22;14204;51.262;5.488;2022-07-23T03:40:37;18.10;99.90
26537;DHT22;14204;51.262;5.488;2022-07-23T03:43:03;18.00;99.90
26537;DHT22;14204;51.262;5.488;2022-07-23T03:45:29;18.00;99.90
26537;DHT22;14204;51.262;5.488;2022-07-23T03:47:54;17.90;99.90
26537;DHT22;14204;51.262;5.488;2022-07-23T03:50:20;17.90;99.90
26537;DHT22;14204;51.262;5.488;2022-07-23T03:52:46;17.80;99.90
26537;DHT22;14204;51.262;5.488;2022-07-23T03:55:12;17.90;99.90
26537;DHT22;14204;51.262;5.488;2022-07-23T03:57:38;17.90;99.90
26537;DHT22;14204;51.262;5.488;2022-07-23T04:00:05;18.00;99.90
26537;DHT22;14204;51.262;5.488;2022-07-23T04:02:32;17.80;99.90
26537;DHT22;14204;51.262;5.488;2022-07-23T04:04:57;17.80;99.90
26537;DHT22;14204;51.262;5.488;2022-07-23T04:07:24;17.80;99.90
26537;DHT22;14204;51.262;5.488;2022-07-23T04:09:50;17.80;99.90
26537;DHT22;14204;51.262;5.488;2022-07-23T04:12:16;17.80;99.90
26537;DHT22;14204;51.262;5.488;2022-07-23T04:14:41;17.70;99.90
26537;DHT22;14204;51.262;5.488;2022-07-23T04:17:07;17.70;99.90
26537;DHT22;14204;51.262;5.488;2022-07-23T04:19:32;17.70;99.90
26537;DHT22;14204;51.262;5.488;2022-07-23T04:21:58;17.60;99.90
26537;DHT22;14204;51.262;5.488;2022-07-23T04:24:24;17.60;99.90
26537;DHT22;14204;51.262;5.488;2022-07-23T04:26:50;17.60;99.90
26537;DHT22;14204;51.262;5.488;2022-07-23T04:29:15;17.60;99.90
26537;DHT22;14204;51.262;5.488;2022-07-23T04:31:41;17.60;99.90
26537;DHT22;14204;51.262;5.488;2022-07-23T04:34:07;17.60;99.90
26537;DHT22;14204;51.262;5.488;2022-07-23T04:36:32;17.60;99.90
26537;DHT22;14204;51.262;5.488;2022-07-23T04:38:58;17.60;99.90
26537;DHT22;14204;51.262;5.488;2022-07-23T04:41:24;17.50;99.90
26537;DHT22;14204;51.262;5.488;2022-07-23T04:43:49;17.50;99.90
26537;DHT22;14204;51.262;5.488;2022-07-23T04:46:15;17.60;99.90
26537;DHT22;14204;51.262;5.488;2022-07-23T04:48:41;17.50;99.90
26537;DHT22;14204;51.262;5.488;2022-07-23T04:51:07;17.50;99.90
26537;DHT22;14204;51.262;5.488;2022-07-23T04:53:33;17.50;99.90
26537;DHT22;14204;51.262;5.488;2022-07-23T04:55:59;17.50;99.90
26537;DHT22;14204;51.262;5.488;2022-07-23T04:58:25;17.50;99.90
26537;DHT22;14204;51.262;5.488;2022-07-23T05:00:51;17.50;99.90
26537;DHT22;14204;51.262;5.488;2022-07-23T05:03:17;17.50;99.90
26537;DHT22;14204;51.262;5.488;2022-07-23T05:05:43;17.50;99.90
26537;DHT22;14204;51.262;5.488;2022-07-23T05:08:08;17.60;99.90
26537;DHT22;14204;51.262;5.488;2022-07-23T05:10:34;17.60;99.90
26537;DHT22;14204;51.262;5.488;2022-07-23T05:13:00;17.60;99.90
26537;DHT22;14204;51.262;5.488;2022-07-23T05:15:25;17.60;99.90
26537;DHT22;14204;51.262;5.488;2022-07-23T05:17:51;17.50;99.90
26537;DHT22;14204;51.262;5.488;2022-07-23T05:20:17;17.60;99.90
26537;DHT22;14204;51.262;5.488;2022-07-23T05:22:43;17.60;99.90
26537;DHT22;14204;51.262;5.488;2022-07-23T05:25:08;17.60;99.90
26537;DHT22;14204;51.262;5.488;2022-07-23T05:27:34;17.60;99.90
26537;DHT22;14204;51.262;5.488;2022-07-23T05:30:00;17.70;99.90
26537;DHT22;14204;51.262;5.488;2022-07-23T05:32:26;17.70;99.90
26537;DHT22;14204;51.262;5.488;2022-07-23T05:34:51;17.70;99.90
26537;DHT22;14204;51.262;5.488;2022-07-23T05:37:17;17.70;99.90
26537;DHT22;14204;51.262;5.488;2022-07-23T05:39:43;17.70;99.90
26537;DHT22;14204;51.262;5.488;2022-07-23T05:42:09;17.80;99.90
26537;DHT22;14204;51.262;5.488;2022-07-23T05:44:34;17.80;99.90
26537;DHT22;14204;51.262;5.488;2022-07-23T05:47:00;17.80;99.90
26537;DHT22;14204;51.262;5.488;2022-07-23T05:49:26;17.80;99.90
26537;DHT22;14204;51.262;5.488;2022-07-23T05:51:52;17.90;99.90
26537;DHT22;14204;51.262;5.488;2022-07-23T05:54:17;17.90;99.90
26537;DHT22;14204;51.262;5.488;2022-07-23T05:56:43;17.90;99.90
26537;DHT22;14204;51.262;5.488;2022-07-23T05:59:09;17.90;99.90
26537;DHT22;14204;51.262;5.488;2022-07-23T06:01:34;18.00;99.90
26537;DHT22;14204;51.262;5.488;2022-07-23T06:04:00;18.00;99.90
26537;DHT22;14204;51.262;5.488;2022-07-23T06:06:26;18.00;99.90
26537;DHT22;14204;51.262;5.488;2022-07-23T06:08:51;18.00;99.90
26537;DHT22;14204;51.262;5.488;2022-07-23T06:11:17;17.90;99.90
26537;DHT22;14204;51.262;5.488;2022-07-23T06:13:43;18.00;99.90
26537;DHT22;14204;51.262;5.488;2022-07-23T06:16:08;18.10;99.90
26537;DHT22;14204;51.262;5.488;2022-07-23T06:18:34;18.10;99.90
26537;DHT22;14204;51.262;5.488;2022-07-23T06:21:00;18.20;99.90
26537;DHT22;14204;51.262;5.488;2022-07-23T06:23:25;18.10;99.90
26537;DHT22;14204;51.262;5.488;2022-07-23T06:25:51;18.20;99.90
26537;DHT22;14204;51.262;5.488;2022-07-23T06:28:17;18.30;99.90
26537;DHT22;14204;51.262;5.488;2022-07-23T06:30:43;18.30;99.90
26537;DHT22;14204;51.262;5.488;2022-07-23T06:33:08;18.30;99.90
26537;DHT22;14204;51.262;5.488;2022-07-23T06:35:35;18.40;99.90
26537;DHT22;14204;51.262;5.488;2022-07-23T06:38:00;18.40;99.90
26537;DHT22;14204;51.262;5.488;2022-07-23T06:40:26;18.40;99.90
26537;DHT22;14204;51.262;5.488;2022-07-23T06:42:52;18.50;99.90
26537;DHT22;14204;51.262;5.488;2022-07-23T06:45:18;18.50;99.90
26537;DHT22;14204;51.262;5.488;2022-07-23T06:47:43;18.50;99.90
26537;DHT22;14204;51.262;5.488;2022-07-23T06:50:09;18.60;99.90
26537;DHT22;14204;51.262;5.488;2022-07-23T06:52:35;18.60;99.90
26537;DHT22;14204;51.262;5.488;2022-07-23T06:55:01;18.70;99.90
26537;DHT22;14204;51.262;5.488;2022-07-23T06:57:27;18.80;99.90
26537;DHT22;14204;51.262;5.488;2022-07-23T06:59:53;18.90;99.90
26537;DHT22;14204;51.262;5.488;2022-07-23T07:02:18;18.90;99.90
26537;DHT22;14204;51.262;5.488;2022-07-23T07:04:44;18.90;99.90
26537;DHT22;14204;51.262;5.488;2022-07-23T07:07:11;19.00;99.90
26537;DHT22;14204;51.262;5.488;2022-07-23T07:09:37;19.00;99.90
26537;DHT22;14204;51.262;5.488;2022-07-23T07:12:03;19.10;99.90
26537;DHT22;14204;51.262;5.488;2022-07-23T07:14:29;19.20;99.90
26537;DHT22;14204;51.262;5.488;2022-07-23T07:16:55;19.30;99.90
26537;DHT22;14204;51.262;5.488;2022-07-23T07:19:21;19.50;99.90
26537;DHT22;14204;51.262;5.488;2022-07-23T07:21:47;19.50;99.90
26537;DHT22;14204;51.262;5.488;2022-07-23T07:24:12;19.60;99.90
26537;DHT22;14204;51.262;5.488;2022-07-23T07:26:38;19.80;99.90
26537;DHT22;14204;51.262;5.488;2022-07-23T07:29:05;19.90;99.90
26537;DHT22;14204;51.262;5.488;2022-07-23T07:31:31;19.90;99.90
26537;DHT22;14204;51.262;5.488;2022-07-23T07:33:57;20.00;99.90
26537;DHT22;14204;51.262;5.488;2022-07-23T07:36:23;20.00;99.90
26537;DHT22;14204;51.262;5.488;2022-07-23T07:38:49;20.10;99.90
26537;DHT22;14204;51.262;5.488;2022-07-23T07:41:14;20.10;99.90
26537;DHT22;14204;51.262;5.488;2022-07-23T07:43:41;20.30;99.90
26537;DHT22;14204;51.262;5.488;2022-07-23T07:46:07;20.30;99.90
26537;DHT22;14204;51.262;5.488;2022-07-23T07:48:36;20.40;99.90
26537;DHT22;14204;51.262;5.488;2022-07-23T07:51:03;20.50;99.90
26537;DHT22;14204;51.262;5.488;2022-07-23T07:53:29;20.50;99.90
26537;DHT22;14204;51.262;5.488;2022-07-23T07:55:55;20.70;99.90
26537;DHT22;14204;51.262;5.488;2022-07-23T07:58:21;20.70;99.90
26537;DHT22;14204;51.262;5.488;2022-07-23T08:00:46;20.90;99.90
26537;DHT22;14204;51.262;5.488;2022-07-23T08:03:12;20.90;99.90
26537;DHT22;14204;51.262;5.488;2022-07-23T08:05:38;20.90;99.90
26537;DHT22;14204;51.262;5.488;2022-07-23T08:08:04;20.90;99.90
26537;DHT22;14204;51.262;5.488;2022-07-23T08:10:30;21.00;99.90
26537;DHT22;14204;51.262;5.488;2022-07-23T08:12:58;21.10;99.90
26537;DHT22;14204;51.262;5.488;2022-07-23T08:15:25;21.20;99.90
26537;DHT22;14204;51.262;5.488;2022-07-23T08:17:51;21.40;99.90
26537;DHT22;14204;51.262;5.488;2022-07-23T08:20:20;21.50;99.90
26537;DHT22;14204;51.262;5.488;2022-07-23T08:22:47;21.60;99.90
26537;DHT22;14204;51.262;5.488;2022-07-23T08:25:13;21.90;99.90
26537;DHT22;14204;51.262;5.488;2022-07-23T08:27:39;22.00;99.90
26537;DHT22;14204;51.262;5.488;2022-07-23T08:30:07;22.00;99.90
26537;DHT22;14204;51.262;5.488;2022-07-23T08:32:32;22.10;99.90
26537;DHT22;14204;51.262;5.488;2022-07-23T08:34:58;22.10;99.90
26537;DHT22;14204;51.262;5.488;2022-07-23T08:37:24;22.30;99.90
26537;DHT22;14204;51.262;5.488;2022-07-23T08:39:50;22.50;99.90
26537;DHT22;14204;51.262;5.488;2022-07-23T08:42:15;22.60;99.90
26537;DHT22;14204;51.262;5.488;2022-07-23T08:44:45;22.60;99.90
26537;DHT22;14204;51.262;5.488;2022-07-23T08:47:12;22.80;99.90
26537;DHT22;14204;51.262;5.488;2022-07-23T08:49:39;23.00;99.90
26537;DHT22;14204;51.262;5.488;2022-07-23T08:52:06;23.20;99.90
26537;DHT22;14204;51.262;5.488;2022-07-23T08:54:32;23.10;99.90
26537;DHT22;14204;51.262;5.488;2022-07-23T08:56:59;23.20;99.90
26537;DHT22;14204;51.262;5.488;2022-07-23T08:59:25;23.20;99.90
26537;DHT22;14204;51.262;5.488;2022-07-23T09:01:52;23.40;99.90
26537;DHT22;14204;51.262;5.488;2022-07-23T09:04:17;23.50;99.90
26537;DHT22;14204;51.262;5.488;2022-07-23T09:06:43;23.60;99.90
26537;DHT22;14204;51.262;5.488;2022-07-23T09:09:19;23.50;99.90
26537;DHT22;14204;51.262;5.488;2022-07-23T09:11:47;23.70;99.90
26537;DHT22;14204;51.262;5.488;2022-07-23T09:14:12;23.90;99.90
26537;DHT22;14204;51.262;5.488;2022-07-23T09:16:38;24.00;99.90
26537;DHT22;14204;51.262;5.488;2022-07-23T09:19:06;24.20;99.90
26537;DHT22;14204;51.262;5.488;2022-07-23T09:21:34;24.30;99.90
26537;DHT22;14204;51.262;5.488;2022-07-23T09:26:37;24.30;99.90
26537;DHT22;14204;51.262;5.488;2022-07-23T09:29:23;24.50;99.90
26537;DHT22;14204;51.262;5.488;2022-07-23T09:32:01;24.40;99.90
26537;DHT22;14204;51.262;5.488;2022-07-23T09:34:36;24.50;99.90
26537;DHT22;14204;51.262;5.488;2022-07-23T09:37:17;24.80;99.90
26537;DHT22;14204;51.262;5.488;2022-07-23T09:39:45;24.80;99.90
26537;DHT22;14204;51.262;5.488;2022-07-23T09:44:45;24.60;99.90
26537;DHT22;14204;51.262;5.488;2022-07-23T09:47:11;24.80;99.90
26537;DHT22;14204;51.262;5.488;2022-07-23T09:49:37;24.80;99.90
26537;DHT22;14204;51.262;5.488;2022-07-23T09:52:03;25.00;99.90
26537;DHT22;14204;51.262;5.488;2022-07-23T09:54:35;25.00;99.90
26537;DHT22;14204;51.262;5.488;2022-07-23T09:57:07;25.30;99.90
26537;DHT22;14204;51.262;5.488;2022-07-23T09:59:36;25.50;99.90
26537;DHT22;14204;51.262;5.488;2022-07-23T10:02:04;25.80;99.90
26537;DHT22;14204;51.262;5.488;2022-07-23T10:04:31;26.00;99.90
26537;DHT22;14204;51.262;5.488;2022-07-23T10:07:00;26.00;99.90
26537;DHT22;14204;51.262;5.488;2022-07-23T10:09:29;26.10;99.90
26537;DHT22;14204;51.262;5.488;2022-07-23T10:11:57;26.20;98.90
26537;DHT22;14204;51.262;5.488;2022-07-23T10:14:44;26.20;99.20
26537;DHT22;14204;51.262;5.488;2022-07-23T10:17:10;26.10;99.10
26537;DHT22;14204;51.262;5.488;2022-07-23T10:19:37;26.10;99.10
26537;DHT22;14204;51.262;5.488;2022-07-23T10:22:09;26.10;97.80
26537;DHT22;14204;51.262;5.488;2022-07-23T10:27:30;26.50;98.20
26537;DHT22;14204;51.262;5.488;2022-07-23T10:30:09;26.60;97.10
26537;DHT22;14204;51.262;5.488;2022-07-23T10:38:29;26.90;96.60
26537;DHT22;14204;51.262;5.488;2022-07-23T10:41:02;27.00;96.30
26537;DHT22;14204;51.262;5.488;2022-07-23T10:43:29;27.00;96.10
26537;DHT22;14204;51.262;5.488;2022-07-23T10:45:56;26.90;96.40
26537;DHT22;14204;51.262;5.488;2022-07-23T10:48:41;26.90;97.20
26537;DHT22;14204;51.262;5.488;2022-07-23T10:51:12;27.30;98.70
26537;DHT22;14204;51.262;5.488;2022-07-23T10:53:59;27.20;96.10
26537;DHT22;14204;51.262;5.488;2022-07-23T10:59:22;27.40;97.40
26537;DHT22;14204;51.262;5.488;2022-07-23T11:01:48;27.60;96.40
26537;DHT22;14204;51.262;5.488;2022-07-23T11:04:14;27.80;96.20
26537;DHT22;14204;51.262;5.488;2022-07-23T11:09:24;27.80;95.60
26537;DHT22;14204;51.262;5.488;2022-07-23T11:15:09;28.00;94.80
26537;DHT22;14204;51.262;5.488;2022-07-23T11:17:37;27.90;95.60
26537;DHT22;14204;51.262;5.488;2022-07-23T11:22:38;28.10;94.60
26537;DHT22;14204;51.262;5.488;2022-07-23T11:25:04;28.10;94.70
26537;DHT22;14204;51.262;5.488;2022-07-23T11:27:39;28.10;94.90
26537;DHT22;14204;51.262;5.488;2022-07-23T11:30:07;28.00;96.00
26537;DHT22;14204;51.262;5.488;2022-07-23T11:32:35;28.20;95.00
26537;DHT22;14204;51.262;5.488;2022-07-23T11:35:21;28.10;95.00
26537;DHT22;14204;51.262;5.488;2022-07-23T11:37:48;28.10;93.10
26537;DHT22;14204;51.262;5.488;2022-07-23T11:40:16;28.30;93.70
26537;DHT22;14204;51.262;5.488;2022-07-23T11:43:01;28.30;93.50
26537;DHT22;14204;51.262;5.488;2022-07-23T11:45:39;28.30;92.60
26537;DHT22;14204;51.262;5.488;2022-07-23T11:48:07;28.30;92.20
26537;DHT22;14204;51.262;5.488;2022-07-23T11:50:34;28.30;93.10
26537;DHT22;14204;51.262;5.488;2022-07-23T11:53:00;28.10;93.40
26537;DHT22;14204;51.262;5.488;2022-07-23T11:55:26;28.20;93.00
26537;DHT22;14204;51.262;5.488;2022-07-23T11:57:54;28.40;93.60
26537;DHT22;14204;51.262;5.488;2022-07-23T12:00:25;28.60;93.00
26537;DHT22;14204;51.262;5.488;2022-07-23T12:02:54;28.50;92.50
26537;DHT22;14204;51.262;5.488;2022-07-23T12:05:23;28.20;91.80
26537;DHT22;14204;51.262;5.488;2022-07-23T12:07:51;27.90;92.20
26537;DHT22;14204;51.262;5.488;2022-07-23T12:12:49;28.20;93.50
26537;DHT22;14204;51.262;5.488;2022-07-23T12:15:18;28.40;92.70
26537;DHT22;14204;51.262;5.488;2022-07-23T12:17:46;28.50;92.10
26537;DHT22;14204;51.262;5.488;2022-07-23T12:20:15;28.60;92.50
26537;DHT22;14204;51.262;5.488;2022-07-23T12:22:46;28.60;90.70
26537;DHT22;14204;51.262;5.488;2022-07-23T12:25:18;28.80;91.20
26537;DHT22;14204;51.262;5.488;2022-07-23T12:27:45;29.00;90.30
26537;DHT22;14204;51.262;5.488;2022-07-23T12:30:27;28.90;89.70
26537;DHT22;14204;51.262;5.488;2022-07-23T12:32:54;29.00;89.20
26537;DHT22;14204;51.262;5.488;2022-07-23T12:35:21;29.10;90.50
26537;DHT22;14204;51.262;5.488;2022-07-23T12:37:50;29.30;90.20
26537;DHT22;14204;51.262;5.488;2022-07-23T12:40:37;29.30;90.90
26537;DHT22;14204;51.262;5.488;2022-07-23T12:43:09;29.00;89.30
26537;DHT22;14204;51.262;5.488;2022-07-23T12:48:16;29.00;91.30
26537;DHT22;14204;51.262;5.488;2022-07-23T12:50:49;28.80;91.10
26537;DHT22;14204;51.262;5.488;2022-07-23T12:53:15;29.10;92.50
26537;DHT22;14204;51.262;5.488;2022-07-23T12:55:42;29.40;91.80
26537;DHT22;14204;51.262;5.488;2022-07-23T12:58:11;29.40;91.50
26537;DHT22;14204;51.262;5.488;2022-07-23T13:00:55;29.30;91.20
26537;DHT22;14204;51.262;5.488;2022-07-23T13:03:33;29.30;91.50
26537;DHT22;14204;51.262;5.488;2022-07-23T13:06:00;29.40;92.40
26537;DHT22;14204;51.262;5.488;2022-07-23T13:08:28;29.50;90.30
26537;DHT22;14204;51.262;5.488;2022-07-23T13:10:54;29.50;92.70
26537;DHT22;14204;51.262;5.488;2022-07-23T13:13:22;29.60;90.20
26537;DHT22;14204;51.262;5.488;2022-07-23T13:15:48;29.70;89.50
26537;DHT22;14204;51.262;5.488;2022-07-23T13:18:14;29.50;92.00
26537;DHT22;14204;51.262;5.488;2022-07-23T13:20:40;28.80;88.50
26537;DHT22;14204;51.262;5.488;2022-07-23T13:23:06;28.80;90.00
26537;DHT22;14204;51.262;5.488;2022-07-23T13:25:32;28.80;91.10
26537;DHT22;14204;51.262;5.488;2022-07-23T13:27:58;28.70;91.60
26537;DHT22;14204;51.262;5.488;2022-07-23T13:30:24;28.90;90.80
26537;DHT22;14204;51.262;5.488;2022-07-23T13:32:50;29.00;90.90
26537;DHT22;14204;51.262;5.488;2022-07-23T13:35:16;28.90;91.30
26537;DHT22;14204;51.262;5.488;2022-07-23T13:37:41;29.00;90.30
26537;DHT22;14204;51.262;5.488;2022-07-23T13:40:07;29.20;89.90
26537;DHT22;14204;51.262;5.488;2022-07-23T13:42:33;28.90;90.60
26537;DHT22;14204;51.262;5.488;2022-07-23T13:44:59;28.90;92.60
26537;DHT22;14204;51.262;5.488;2022-07-23T13:47:25;29.10;90.60
26537;DHT22;14204;51.262;5.488;2022-07-23T13:49:51;29.10;90.80
26537;DHT22;14204;51.262;5.488;2022-07-23T13:52:16;29.20;90.70
26537;DHT22;14204;51.262;5.488;2022-07-23T13:54:42;29.30;90.50
26537;DHT22;14204;51.262;5.488;2022-07-23T13:57:08;29.20;90.10
26537;DHT22;14204;51.262;5.488;2022-07-23T13:59:35;29.40;91.00
26537;DHT22;14204;51.262;5.488;2022-07-23T14:02:04;29.40;89.30
26537;DHT22;14204;51.262;5.488;2022-07-23T14:04:31;29.10;90.50
26537;DHT22;14204;51.262;5.488;2022-07-23T14:06:57;29.30;92.40
26537;DHT22;14204;51.262;5.488;2022-07-23T14:09:23;29.30;90.90
26537;DHT22;14204;51.262;5.488;2022-07-23T14:11:49;29.30;90.50
26537;DHT22;14204;51.262;5.488;2022-07-23T14:14:17;29.30;90.70
26537;DHT22;14204;51.262;5.488;2022-07-23T14:16:43;29.30;90.30
26537;DHT22;14204;51.262;5.488;2022-07-23T14:19:09;29.20;90.90
26537;DHT22;14204;51.262;5.488;2022-07-23T14:21:35;29.30;91.00
26537;DHT22;14204;51.262;5.488;2022-07-23T14:24:01;29.30;90.10
26537;DHT22;14204;51.262;5.488;2022-07-23T14:26:27;29.30;90.70
26537;DHT22;14204;51.262;5.488;2022-07-23T14:28:54;29.30;89.10
26537;DHT22;14204;51.262;5.488;2022-07-23T14:31:20;29.30;90.90
26537;DHT22;14204;51.262;5.488;2022-07-23T14:33:45;29.30;88.40
26537;DHT22;14204;51.262;5.488;2022-07-23T14:36:11;29.30;90.00
26537;DHT22;14204;51.262;5.488;2022-07-23T14:38:37;29.20;90.40
26537;DHT22;14204;51.262;5.488;2022-07-23T14:41:03;29.30;89.90
26537;DHT22;14204;51.262;5.488;2022-07-23T14:43:32;29.30;90.10
26537;DHT22;14204;51.262;5.488;2022-07-23T14:45:58;29.30;89.30
26537;DHT22;14204;51.262;5.488;2022-07-23T14:48:24;29.30;90.60
26537;DHT22;14204;51.262;5.488;2022-07-23T14:50:50;29.30;91.40
26537;DHT22;14204;51.262;5.488;2022-07-23T14:53:16;29.40;91.00
26537;DHT22;14204;51.262;5.488;2022-07-23T14:55:41;29.40;91.20
26537;DHT22;14204;51.262;5.488;2022-07-23T14:58:07;29.50;91.80
26537;DHT22;14204;51.262;5.488;2022-07-23T15:00:33;29.70;91.10
26537;DHT22;14204;51.262;5.488;2022-07-23T15:02:58;29.60;90.00
26537;DHT22;14204;51.262;5.488;2022-07-23T15:05:24;29.60;90.20
26537;DHT22;14204;51.262;5.488;2022-07-23T15:07:50;29.50;87.80
26537;DHT22;14204;51.262;5.488;2022-07-23T15:10:16;29.50;90.50
26537;DHT22;14204;51.262;5.488;2022-07-23T15:12:42;29.50;89.90
26537;DHT22;14204;51.262;5.488;2022-07-23T15:15:08;29.50;89.30
26537;DHT22;14204;51.262;5.488;2022-07-23T15:17:34;29.40;89.10
26537;DHT22;14204;51.262;5.488;2022-07-23T15:20:00;29.50;90.70
26537;DHT22;14204;51.262;5.488;2022-07-23T15:22:25;29.50;89.90
26537;DHT22;14204;51.262;5.488;2022-07-23T15:24:51;29.40;86.90
26537;DHT22;14204;51.262;5.488;2022-07-23T15:27:17;29.40;88.30
26537;DHT22;14204;51.262;5.488;2022-07-23T15:29:44;29.30;88.80
26537;DHT22;14204;51.262;5.488;2022-07-23T15:32:10;29.20;89.80
26537;DHT22;14204;51.262;5.488;2022-07-23T15:34:37;29.10;89.90
26537;DHT22;14204;51.262;5.488;2022-07-23T15:37:03;29.10;91.10
26537;DHT22;14204;51.262;5.488;2022-07-23T15:39:31;29.00;90.90
26537;DHT22;14204;51.262;5.488;2022-07-23T15:41:59;28.90;91.10
26537;DHT22;14204;51.262;5.488;2022-07-23T15:44:25;28.70;91.00
26537;DHT22;14204;51.262;5.488;2022-07-23T15:46:51;28.70;90.30
26537;DHT22;14204;51.262;5.488;2022-07-23T15:49:17;28.80;90.50
26537;DHT22;14204;51.262;5.488;2022-07-23T15:51:43;28.80;90.50
26537;DHT22;14204;51.262;5.488;2022-07-23T15:54:09;28.70;89.20
26537;DHT22;14204;51.262;5.488;2022-07-23T15:56:35;28.50;90.70
26537;DHT22;14204;51.262;5.488;2022-07-23T15:59:00;28.30;89.90